Time,TemperatureF,DewpointF,PressureIn,WindDirection,WindDirectionDegrees,WindSpeedMPH,WindSpeedGustMPH,Humidity,HourlyPrecipIn,Conditions,Clouds,dailyrainin,SoftwareType,DateUTC
2013-05-04 00:00:00,37.9,34.4,29.97,North,359,1.5,8.0,87,0.00,,,0.00,VWS V14.01,2013-05-04 05:00:00,
2013-05-04 00:01:00,37.9,34.4,29.97,NNW,336,0.0,2.0,87,0.00,,,0.00,VWS V14.01,2013-05-04 05:01:00,
2013-05-04 00:06:00,37.9,35.0,29.97,NNW,329,1.5,2.0,89,0.00,,,0.00,VWS V14.01,2013-05-04 05:06:00,
2013-05-04 00:11:00,37.8,35.1,29.96,WNW,283,0.0,2.0,90,0.00,,,0.00,VWS V14.01,2013-05-04 05:11:00,
2013-05-04 00:16:00,37.8,35.1,29.96,NW,312,0.0,2.0,90,0.00,,,0.00,VWS V14.01,2013-05-04 05:16:00,
2013-05-04 00:21:00,37.7,34.8,29.96,NNW,340,6.0,6.0,89,0.00,,,0.00,VWS V14.01,2013-05-04 05:21:00,
2013-05-04 00:26:00,37.6,34.4,29.96,WNW,295,10.5,10.5,88,0.00,,,0.00,VWS V14.01,2013-05-04 05:26:00,
2013-05-04 00:31:00,37.6,34.7,29.96,North,357,0.0,7.0,89,0.00,,,0.00,VWS V14.01,2013-05-04 05:31:00,
2013-05-04 00:36:00,37.5,34.6,29.95,NW,315,0.0,7.0,89,0.00,,,0.00,VWS V14.01,2013-05-04 05:36:00,
2013-05-04 00:41:00,37.4,34.7,29.95,NW,318,1.5,7.0,90,0.00,,,0.00,VWS V14.01,2013-05-04 05:41:00,
2013-05-04 00:46:00,37.3,34.9,29.95,WNW,293,0.0,7.0,91,0.00,,,0.00,VWS V14.01,2013-05-04 05:46:00,
2013-05-04 00:51:00,37.3,34.9,29.95,NNE,18,1.5,7.0,91,0.00,,,0.00,VWS V14.01,2013-05-04 05:51:00,
2013-05-04 00:56:00,37.2,34.8,29.95,WSW,252,0.0,7.0,91,0.00,,,0.00,VWS V14.01,2013-05-04 05:56:00,
2013-05-04 01:00:00,37.9,34.4,29.97,North,359,1.5,8.0,87,0.00,,,0.00,VWS V15.00,2013-05-04 06:00:00,
2013-05-04 01:01:00,37.2,34.8,29.95,NW,307,0.0,7.0,91,0.00,,,0.00,VWS V14.01,2013-05-04 06:01:00,
2013-05-04 01:06:00,37.2,34.8,29.94,NW,315,0.0,7.0,91,0.00,,,0.00,VWS V14.01,2013-05-04 06:06:00,
2013-05-04 01:11:00,37.2,34.8,29.94,SW,219,0.0,7.0,91,0.00,,,0.00,VWS V14.01,2013-05-04 06:11:00,
2013-05-04 01:16:00,37.2,35.1,29.94,West,278,0.0,7.0,92,0.00,,,0.00,VWS V14.01,2013-05-04 06:16:00,
2013-05-04 01:21:00,37.2,35.1,29.94,NNW,328,0.0,7.0,92,0.00,,,0.00,VWS V14.01,2013-05-04 06:21:00,
2013-05-04 01:26:00,37.2,35.1,29.94,West,266,1.5,7.0,92,0.00,,,0.00,VWS V14.01,2013-05-04 06:26:00,
2013-05-04 01:31:00,37.1,35.0,29.94,NNW,332,3.0,7.0,92,0.00,,,0.00,VWS V14.01,2013-05-04 06:31:00,
2013-05-04 01:36:00,37.0,35.2,29.94,NW,314,1.5,7.0,93,0.01,,,0.01,VWS V14.01,2013-05-04 06:36:00,
2013-05-04 01:41:00,37.0,35.4,29.94,NNW,328,3.0,7.0,94,0.01,,,0.01,VWS V14.01,2013-05-04 06:41:00,
2013-05-04 01:46:00,36.9,35.3,29.93,NW,314,0.0,7.0,94,0.01,,,0.01,VWS V14.01,2013-05-04 06:46:00,
2013-05-04 01:51:00,36.8,35.2,29.93,SW,235,0.0,7.0,94,0.01,,,0.01,VWS V14.01,2013-05-04 06:51:00,
2013-05-04 01:56:00,36.6,35.0,29.93,North,10,1.5,7.0,94,0.01,,,0.01,VWS V14.01,2013-05-04 06:56:00,
2013-05-04 02:00:00,36.5,34.9,29.93,WNW,285,0.0,7.0,94,0.02,,,0.02,VWS V14.01,2013-05-04 07:00:00,
2013-05-04 02:01:00,36.5,34.9,29.93,NW,306,0.0,2.0,94,0.00,,,0.02,VWS V14.01,2013-05-04 07:01:00,
2013-05-04 02:06:00,36.5,35.2,29.93,NW,321,0.0,2.0,95,0.00,,,0.02,VWS V14.01,2013-05-04 07:06:00,
2013-05-04 02:11:00,36.3,35.0,29.92,NW,309,4.5,4.5,95,0.00,,,0.02,VWS V14.01,2013-05-04 07:11:00,
2013-05-04 02:16:00,36.2,34.9,29.92,NW,320,1.5,5.0,95,0.01,,,0.03,VWS V14.01,2013-05-04 07:16:00,
2013-05-04 02:21:00,36.1,35.1,29.92,NW,315,0.0,5.0,96,0.01,,,0.03,VWS V14.01,2013-05-04 07:21:00,
2013-05-04 02:26:00,36.0,34.7,29.92,NW,321,0.0,5.0,95,0.01,,,0.03,VWS V14.01,2013-05-04 07:26:00,
2013-05-04 02:30:00,36.0,35.0,29.92,NW,305,3.0,5.0,96,0.01,,,0.03,VWS V14.01,2013-05-04 07:30:00,
2013-05-04 02:35:00,36.0,35.0,29.92,NNW,345,0.0,6.0,96,0.02,,,0.04,VWS V14.01,2013-05-04 07:35:00,
2013-05-04 02:40:00,36.1,35.1,29.91,NW,316,0.0,6.0,96,0.02,,,0.04,VWS V14.01,2013-05-04 07:40:00,
2013-05-04 02:45:00,36.2,35.2,29.91,NNE,13,4.5,6.0,96,0.02,,,0.04,VWS V14.01,2013-05-04 07:45:00,
2013-05-04 02:50:00,36.3,35.3,29.91,WNW,290,15.0,15.0,96,0.02,,,0.04,VWS V14.01,2013-05-04 07:50:00,
2013-05-04 02:55:00,36.3,35.3,29.91,West,268,4.5,10.0,96,0.02,,,0.04,VWS V14.01,2013-05-04 07:55:00,
2013-05-04 03:00:00,36.3,35.3,29.91,NE,44,0.0,10.0,96,0.02,,,0.04,VWS V14.01,2013-05-04 08:00:00,
2013-05-04 03:05:00,36.4,35.4,29.91,West,259,0.0,10.0,96,0.02,,,0.04,VWS V14.01,2013-05-04 08:05:00,
2013-05-04 03:10:00,36.4,35.4,29.90,WSW,248,0.0,10.0,96,0.02,,,0.04,VWS V14.01,2013-05-04 08:10:00,
2013-05-04 03:15:00,36.4,35.4,29.90,East,100,0.0,10.0,96,0.02,,,0.04,VWS V14.01,2013-05-04 08:15:00,
2013-05-04 03:20:00,36.5,35.5,29.90,North,356,6.0,10.0,96,0.02,,,0.04,VWS V14.01,2013-05-04 08:20:00,
2013-05-04 03:25:00,36.6,35.6,29.90,NNW,330,0.0,10.0,96,0.02,,,0.04,VWS V14.01,2013-05-04 08:25:00,
2013-05-04 03:30:00,36.6,35.6,29.90,West,264,3.0,10.0,96,0.02,,,0.04,VWS V14.01,2013-05-04 08:30:00,
2013-05-04 03:35:00,36.6,35.6,29.90,West,266,1.5,10.0,96,0.03,,,0.05,VWS V14.01,2013-05-04 08:35:00,
2013-05-04 03:40:00,36.6,35.6,29.90,NNE,31,0.0,10.0,96,0.03,,,0.05,VWS V14.01,2013-05-04 08:40:00,
2013-05-04 03:45:00,36.6,35.8,29.90,NW,320,3.0,10.0,97,0.03,,,0.05,VWS V14.01,2013-05-04 08:45:00,
2013-05-04 03:50:00,36.7,35.9,29.90,West,273,1.5,10.0,97,0.03,,,0.05,VWS V14.01,2013-05-04 08:50:00,
2013-05-04 03:55:00,36.7,35.9,29.90,NNW,341,1.5,10.0,97,0.03,,,0.05,VWS V14.01,2013-05-04 08:55:00,
2013-05-04 04:00:00,36.7,35.9,29.90,West,270,3.0,3.0,97,0.00,,,0.05,VWS V14.01,2013-05-04 09:00:00,
2013-05-04 04:05:00,36.6,35.8,29.90,WNW,290,0.0,2.0,97,0.00,,,0.05,VWS V14.01,2013-05-04 09:05:00,
2013-05-04 04:10:00,36.6,35.8,29.90,WNW,288,1.5,2.0,97,0.00,,,0.05,VWS V14.01,2013-05-04 09:10:00,
2013-05-04 04:15:00,36.6,35.8,29.90,NNE,20,3.0,4.0,97,0.00,,,0.05,VWS V14.01,2013-05-04 09:15:00,
2013-05-04 04:20:00,36.5,35.7,29.90,NW,315,0.0,4.0,97,0.00,,,0.05,VWS V14.01,2013-05-04 09:20:00,
2013-05-04 04:25:00,36.6,35.8,29.89,West,274,0.0,4.0,97,0.00,,,0.05,VWS V14.01,2013-05-04 09:25:00,
2013-05-04 04:30:00,36.6,35.8,29.89,WNW,293,0.0,7.0,97,0.00,,,0.05,VWS V14.01,2013-05-04 09:30:00,
2013-05-04 04:35:00,36.6,35.6,29.89,WNW,297,1.5,7.0,96,0.01,,,0.06,VWS V14.01,2013-05-04 09:35:00,
2013-05-04 04:40:00,36.5,35.5,29.89,West,276,0.0,7.0,96,0.01,,,0.06,VWS V14.01,2013-05-04 09:40:00,
2013-05-04 04:45:00,36.4,35.4,29.90,WNW,287,0.0,7.0,96,0.01,,,0.06,VWS V14.01,2013-05-04 09:45:00,
2013-05-04 04:50:00,36.3,35.3,29.89,WSW,242,3.0,7.0,96,0.01,,,0.06,VWS V14.01,2013-05-04 09:50:00,
2013-05-04 04:55:00,36.1,35.1,29.89,East,79,0.0,7.0,96,0.01,,,0.06,VWS V14.01,2013-05-04 09:55:00,
2013-05-04 05:00:00,36.0,35.0,29.89,WNW,298,3.0,7.0,96,0.02,,,0.07,VWS V14.01,2013-05-04 10:00:00,
2013-05-04 05:05:00,35.9,35.1,29.89,NNE,23,0.0,7.0,97,0.02,,,0.07,VWS V14.01,2013-05-04 10:05:00,
2013-05-04 05:10:00,35.9,35.1,29.89,SSE,150,0.0,7.0,97,0.02,,,0.07,VWS V14.01,2013-05-04 10:10:00,
2013-05-04 05:15:00,36.0,35.2,29.89,SE,138,0.0,7.0,97,0.02,,,0.07,VWS V14.01,2013-05-04 10:15:00,
2013-05-04 05:20:00,36.0,35.2,29.89,WNW,298,0.0,7.0,97,0.02,,,0.07,VWS V14.01,2013-05-04 10:20:00,
2013-05-04 05:25:00,35.9,35.1,29.89,WSW,257,0.0,7.0,97,0.02,,,0.07,VWS V14.01,2013-05-04 10:25:00,
2013-05-04 05:30:00,35.9,35.1,29.89,East,94,0.0,7.0,97,0.02,,,0.07,VWS V14.01,2013-05-04 10:30:00,
2013-05-04 05:35:00,35.9,35.1,29.89,ENE,75,0.0,7.0,97,0.02,,,0.07,VWS V14.01,2013-05-04 10:35:00,
2013-05-04 05:40:00,35.9,35.1,29.89,South,174,0.0,7.0,97,0.02,,,0.07,VWS V14.01,2013-05-04 10:40:00,
2013-05-04 05:45:00,35.9,35.1,29.89,North,356,0.0,7.0,97,0.02,,,0.07,VWS V14.01,2013-05-04 10:45:00,
2013-05-04 05:50:00,35.8,35.0,29.89,SW,224,0.0,7.0,97,0.03,,,0.08,VWS V14.01,2013-05-04 10:50:00,
2013-05-04 05:55:00,35.6,34.8,29.88,East,84,1.5,7.0,97,0.03,,,0.08,VWS V14.01,2013-05-04 10:55:00,
2013-05-04 06:00:00,35.5,34.7,29.88,East,90,0.0,0.0,97,0.00,,,0.08,VWS V14.01,2013-05-04 11:00:00,
2013-05-04 06:05:00,35.5,34.7,29.89,West,270,0.0,0.0,97,0.01,,,0.09,VWS V14.01,2013-05-04 11:05:00,
2013-05-04 06:10:00,35.3,34.5,29.89,West,274,0.0,2.0,97,0.01,,,0.09,VWS V14.01,2013-05-04 11:10:00,
2013-05-04 06:15:00,35.2,34.4,29.88,SSE,163,0.0,2.0,97,0.01,,,0.09,VWS V14.01,2013-05-04 11:15:00,
2013-05-04 06:20:00,35.2,34.7,29.89,SSE,165,0.0,2.0,98,0.01,,,0.09,VWS V14.01,2013-05-04 11:20:00,
2013-05-04 06:25:00,35.3,34.8,29.88,SSE,155,0.0,2.0,98,0.01,,,0.09,VWS V14.01,2013-05-04 11:25:00,
2013-05-04 06:30:00,35.3,34.8,29.88,SSE,168,0.0,2.0,98,0.01,,,0.09,VWS V14.01,2013-05-04 11:30:00,
2013-05-04 06:35:00,35.5,35.0,29.88,South,177,0.0,3.0,98,0.01,,,0.09,VWS V14.01,2013-05-04 11:35:00,
2013-05-04 06:40:00,35.5,35.0,29.88,SSE,168,0.0,3.0,98,0.01,,,0.09,VWS V14.01,2013-05-04 11:40:00,
2013-05-04 06:45:00,35.6,35.1,29.88,SE,140,0.0,3.0,98,0.02,,,0.10,VWS V14.01,2013-05-04 11:45:00,
2013-05-04 06:50:00,35.7,35.2,29.88,SSW,197,1.5,3.0,98,0.02,,,0.10,VWS V14.01,2013-05-04 11:50:00,
2013-05-04 06:55:00,35.7,35.2,29.88,SW,229,0.0,4.0,98,0.02,,,0.10,VWS V14.01,2013-05-04 11:55:00,
2013-05-04 07:00:00,35.7,35.2,29.88,SSW,200,0.0,4.0,98,0.02,,,0.10,VWS V14.01,2013-05-04 12:00:00,
2013-05-04 07:05:00,35.7,35.2,29.88,SW,231,0.0,4.0,98,0.02,,,0.10,VWS V14.01,2013-05-04 12:05:00,
2013-05-04 07:11:00,35.8,35.3,29.88,South,185,0.0,4.0,98,0.02,,,0.10,VWS V14.01,2013-05-04 12:11:00,
2013-05-04 07:16:00,35.8,35.3,29.88,SSE,165,0.0,4.0,98,0.02,,,0.10,VWS V14.01,2013-05-04 12:16:00,
2013-05-04 07:21:00,35.7,35.2,29.88,SSW,205,0.0,4.0,98,0.02,,,0.10,VWS V14.01,2013-05-04 12:21:00,
2013-05-04 07:26:00,35.6,35.1,29.88,SE,146,0.0,4.0,98,0.03,,,0.11,VWS V14.01,2013-05-04 12:26:00,
2013-05-04 07:31:00,35.6,35.1,29.88,SSW,212,0.0,4.0,98,0.03,,,0.11,VWS V14.01,2013-05-04 12:31:00,
2013-05-04 07:36:00,35.6,35.1,29.88,SSW,212,0.0,4.0,98,0.03,,,0.11,VWS V14.01,2013-05-04 12:36:00,
2013-05-04 07:41:00,35.7,35.2,29.88,SW,225,0.0,4.0,98,0.03,,,0.11,VWS V14.01,2013-05-04 12:41:00,
2013-05-04 07:46:00,35.8,35.3,29.88,SSW,205,0.0,4.0,98,0.04,,,0.12,VWS V14.01,2013-05-04 12:46:00,
2013-05-04 07:51:00,35.9,35.4,29.88,South,173,0.0,4.0,98,0.04,,,0.12,VWS V14.01,2013-05-04 12:51:00,
2013-05-04 07:56:00,35.9,35.4,29.88,South,173,0.0,4.0,98,0.04,,,0.12,VWS V14.01,2013-05-04 12:56:00,
2013-05-04 08:00:00,35.9,35.4,29.88,SSW,203,0.0,4.0,98,0.05,,,0.13,VWS V14.01,2013-05-04 13:00:00,
2013-05-04 08:01:00,35.9,35.4,29.88,SSW,203,0.0,0.0,98,0.00,,,0.13,VWS V14.01,2013-05-04 13:01:00,
2013-05-04 08:03:00,36.0,35.5,29.88,SSW,203,0.0,0.0,98,0.00,,,0.13,VWS V14.01,2013-05-04 13:03:00,
2013-05-04 08:08:00,35.9,35.4,29.88,SSE,153,0.0,0.0,98,0.00,,,0.13,VWS V14.01,2013-05-04 13:08:00,
2013-05-04 08:13:00,35.9,35.4,29.87,SSE,152,0.0,0.0,98,0.01,,,0.14,VWS V14.01,2013-05-04 13:13:00,
2013-05-04 08:18:00,35.9,35.4,29.88,SSE,150,0.0,1.0,98,0.01,,,0.14,VWS V14.01,2013-05-04 13:18:00,
2013-05-04 08:23:00,36.0,35.5,29.88,SE,139,0.0,1.0,98,0.01,,,0.14,VWS V14.01,2013-05-04 13:23:00,
2013-05-04 08:28:00,36.1,35.6,29.88,SE,134,0.0,1.0,98,0.01,,,0.14,VWS V14.01,2013-05-04 13:28:00,
2013-05-04 08:33:00,36.2,35.7,29.88,NNE,22,0.0,1.0,98,0.02,,,0.15,VWS V14.01,2013-05-04 13:33:00,
2013-05-04 08:38:00,36.3,35.8,29.88,SW,226,0.0,1.0,98,0.02,,,0.15,VWS V14.01,2013-05-04 13:38:00,
2013-05-04 08:43:00,36.4,35.9,29.88,NW,321,0.0,1.0,98,0.02,,,0.15,VWS V14.01,2013-05-04 13:43:00,
2013-05-04 08:48:00,36.5,36.0,29.87,NW,322,0.0,1.0,98,0.03,,,0.16,VWS V14.01,2013-05-04 13:48:00,
2013-05-04 08:53:00,36.7,36.2,29.88,SE,124,0.0,1.0,98,0.03,,,0.16,VWS V14.01,2013-05-04 13:53:00,
2013-05-04 08:58:00,37.0,36.5,29.88,South,183,0.0,1.0,98,0.03,,,0.16,VWS V14.01,2013-05-04 13:58:00,
2013-05-04 09:00:00,35.9,35.4,29.88,SSW,203,0.0,4.0,98,0.05,,,0.13,VWS V15.00,2013-05-04 14:00:00,
2013-05-04 09:03:00,37.1,36.3,29.88,South,172,0.0,1.0,97,0.04,,,0.17,VWS V14.01,2013-05-04 14:03:00,
2013-05-04 09:08:00,37.3,36.5,29.87,SE,141,1.5,1.5,97,0.04,,,0.17,VWS V14.01,2013-05-04 14:08:00,
2013-05-04 09:13:00,37.4,36.6,29.88,ENE,63,0.0,1.0,97,0.04,,,0.17,VWS V14.01,2013-05-04 14:13:00,
2013-05-04 09:18:00,37.5,36.7,29.87,NNE,25,0.0,1.0,97,0.04,,,0.17,VWS V14.01,2013-05-04 14:18:00,
2013-05-04 09:23:00,37.6,36.6,29.87,NW,326,1.5,2.0,96,0.04,,,0.17,VWS V14.01,2013-05-04 14:23:00,
2013-05-04 09:28:00,37.8,37.0,29.87,SSW,200,0.0,2.0,97,0.04,,,0.17,VWS V14.01,2013-05-04 14:28:00,
2013-05-04 09:33:00,38.0,37.0,29.87,NNW,337,1.5,4.0,96,0.05,,,0.18,VWS V14.01,2013-05-04 14:33:00,
2013-05-04 09:38:00,38.4,37.6,29.87,WNW,297,1.5,4.0,97,0.05,,,0.18,VWS V14.01,2013-05-04 14:38:00,
2013-05-04 09:43:00,38.3,36.7,29.87,NW,309,3.0,5.0,94,0.05,,,0.18,VWS V14.01,2013-05-04 14:43:00,
2013-05-04 09:48:00,38.3,37.3,29.87,NNE,13,1.5,5.0,96,0.05,,,0.18,VWS V14.01,2013-05-04 14:48:00,
2013-05-04 09:53:00,38.9,37.9,29.87,WNW,290,3.0,5.0,96,0.05,,,0.18,VWS V14.01,2013-05-04 14:53:00,
2013-05-04 09:58:00,38.9,37.6,29.87,NNW,329,0.0,5.0,95,0.05,,,0.18,VWS V14.01,2013-05-04 14:58:00,
2013-05-04 10:00:00,38.9,37.0,29.87,North,349,0.0,5.0,93,0.05,,,0.18,VWS V14.01,2013-05-04 15:00:00,
2013-05-04 10:03:00,39.1,37.8,29.87,NW,308,1.5,4.0,95,0.00,,,0.18,VWS V14.01,2013-05-04 15:03:00,
2013-05-04 10:08:00,39.4,38.1,29.87,NNE,20,0.0,4.0,95,0.00,,,0.18,VWS V14.01,2013-05-04 15:08:00,
2013-05-04 10:13:00,39.9,38.3,29.87,North,359,3.0,5.0,94,0.00,,,0.18,VWS V14.01,2013-05-04 15:13:00,
2013-05-04 10:18:00,39.9,38.0,29.87,West,274,0.0,5.0,93,0.00,,,0.18,VWS V14.01,2013-05-04 15:18:00,
2013-05-04 10:23:00,40.3,38.7,29.88,NNE,33,0.0,5.0,94,0.00,,,0.18,VWS V14.01,2013-05-04 15:23:00,
2013-05-04 10:28:00,40.7,38.6,29.88,NNW,332,3.0,5.0,92,0.00,,,0.18,VWS V14.01,2013-05-04 15:28:00,
2013-05-04 10:33:00,40.5,38.1,29.88,WNW,300,4.5,5.0,91,0.00,,,0.18,VWS V14.01,2013-05-04 15:33:00,
2013-05-04 10:38:00,40.3,37.6,29.88,NW,304,0.0,6.0,90,0.00,,,0.18,VWS V14.01,2013-05-04 15:38:00,
2013-05-04 10:43:00,40.3,37.6,29.88,NNW,333,3.0,6.0,90,0.00,,,0.18,VWS V14.01,2013-05-04 15:43:00,
2013-05-04 10:48:00,40.1,37.4,29.89,NW,304,4.5,6.0,90,0.00,,,0.18,VWS V14.01,2013-05-04 15:48:00,
2013-05-04 10:53:00,40.1,37.4,29.89,NNW,330,0.0,6.0,90,0.00,,,0.18,VWS V14.01,2013-05-04 15:53:00,
2013-05-04 10:58:00,40.4,37.7,29.88,NW,323,6.0,6.0,90,0.00,,,0.18,VWS V14.01,2013-05-04 15:58:00,
2013-05-04 11:03:00,40.6,38.2,29.89,North,4,0.0,6.0,91,0.00,,,0.18,VWS V14.01,2013-05-04 16:03:00,
2013-05-04 11:08:00,40.4,37.1,29.89,NW,321,1.5,7.0,88,0.00,,,0.18,VWS V14.01,2013-05-04 16:08:00,
2013-05-04 11:13:00,40.1,37.1,29.89,WNW,300,4.5,7.0,89,0.00,,,0.18,VWS V14.01,2013-05-04 16:13:00,
2013-05-04 11:18:00,40.1,36.5,29.89,NW,317,1.5,7.0,87,0.00,,,0.18,VWS V14.01,2013-05-04 16:18:00,
2013-05-04 11:23:00,40.2,37.2,29.89,NW,304,6.0,7.0,89,0.00,,,0.18,VWS V14.01,2013-05-04 16:23:00,
2013-05-04 11:28:00,39.5,36.5,29.89,North,1,4.5,7.0,89,0.00,,,0.18,VWS V14.01,2013-05-04 16:28:00,
2013-05-04 11:33:00,39.2,36.5,29.89,North,10,4.5,7.0,90,0.00,,,0.18,VWS V14.01,2013-05-04 16:33:00,
2013-05-04 11:38:00,39.1,36.7,29.89,NNE,13,6.0,7.0,91,0.00,,,0.18,VWS V14.01,2013-05-04 16:38:00,
2013-05-04 11:43:00,39.2,37.1,29.90,NNE,32,3.0,7.0,92,0.00,,,0.18,VWS V14.01,2013-05-04 16:43:00,
2013-05-04 11:48:00,39.2,36.8,29.90,North,349,0.0,7.0,91,0.00,,,0.18,VWS V14.01,2013-05-04 16:48:00,
2013-05-04 11:53:00,39.3,36.9,29.90,North,350,1.5,7.0,91,0.00,,,0.18,VWS V14.01,2013-05-04 16:53:00,
2013-05-04 11:58:00,39.4,37.0,29.90,NNE,23,4.5,7.0,91,0.00,,,0.18,VWS V14.01,2013-05-04 16:58:00,
2013-05-04 12:00:00,39.3,36.9,29.90,North,4,6.0,7.0,91,0.00,,,0.18,VWS V14.01,2013-05-04 17:00:00,
2013-05-04 12:03:00,39.1,37.0,29.90,North,8,4.5,6.0,92,0.00,,,0.18,VWS V14.01,2013-05-04 17:03:00,
2013-05-04 12:08:00,39.0,36.9,29.90,West,273,3.0,6.0,92,0.00,,,0.18,VWS V14.01,2013-05-04 17:08:00,
2013-05-04 12:13:00,39.1,36.7,29.90,North,356,4.5,6.0,91,0.00,,,0.18,VWS V14.01,2013-05-04 17:13:00,
2013-05-04 12:18:00,39.4,37.0,29.90,NE,46,4.5,6.0,91,0.00,,,0.18,VWS V14.01,2013-05-04 17:18:00,
2013-05-04 12:23:00,39.7,37.3,29.90,North,356,0.0,6.0,91,0.00,,,0.18,VWS V14.01,2013-05-04 17:23:00,
2013-05-04 12:28:00,40.2,37.5,29.90,NNW,335,6.0,6.0,90,0.00,,,0.18,VWS V14.01,2013-05-04 17:28:00,
2013-05-04 12:33:00,40.6,37.3,29.90,NNW,345,3.0,6.0,88,0.00,,,0.18,VWS V14.01,2013-05-04 17:33:00,
2013-05-04 12:38:00,40.8,38.1,29.90,NW,304,1.5,6.0,90,0.00,,,0.18,VWS V14.01,2013-05-04 17:38:00,
2013-05-04 12:43:00,41.1,37.2,29.90,NNW,335,0.0,6.0,86,0.00,,,0.18,VWS V14.01,2013-05-04 17:43:00,
2013-05-04 12:48:00,41.1,36.9,29.90,NW,304,3.0,6.0,85,0.00,,,0.18,VWS V14.01,2013-05-04 17:48:00,
2013-05-04 12:53:00,41.3,37.4,29.90,WSW,249,1.5,7.0,86,0.00,,,0.18,VWS V14.01,2013-05-04 17:53:00,
2013-05-04 12:58:00,41.3,37.4,29.90,West,277,0.0,7.0,86,0.00,,,0.18,VWS V14.01,2013-05-04 17:58:00,
2013-05-04 13:00:00,39.3,36.9,29.90,North,4,6.0,7.0,91,0.00,,,0.18,VWS V15.00,2013-05-04 18:00:00,
2013-05-04 13:03:00,41.5,37.3,29.90,WNW,290,0.0,7.0,85,0.00,,,0.18,VWS V14.01,2013-05-04 18:03:00,
2013-05-04 13:08:00,41.4,36.6,29.91,NW,304,6.0,7.0,83,0.00,,,0.18,VWS V14.01,2013-05-04 18:08:00,
2013-05-04 13:13:00,41.5,37.0,29.91,North,3,1.5,7.0,84,0.00,,,0.18,VWS V14.01,2013-05-04 18:13:00,
2013-05-04 13:18:00,41.5,36.7,29.91,NW,325,1.5,7.0,83,0.00,,,0.18,VWS V14.01,2013-05-04 18:18:00,
2013-05-04 13:23:00,42.0,37.5,29.91,NNE,12,4.5,7.0,84,0.00,,,0.18,VWS V14.01,2013-05-04 18:23:00,
2013-05-04 13:28:00,41.9,37.1,29.91,NNW,337,0.0,7.0,83,0.00,,,0.18,VWS V14.01,2013-05-04 18:28:00,
2013-05-04 13:33:00,42.1,37.0,29.91,WNW,303,3.0,7.0,82,0.00,,,0.18,VWS V14.01,2013-05-04 18:33:00,
2013-05-04 13:38:00,41.6,36.5,29.91,NNW,329,1.5,11.0,82,0.00,,,0.18,VWS V14.01,2013-05-04 18:38:00,
2013-05-04 13:43:00,41.4,36.9,29.91,WNW,301,0.0,11.0,84,0.00,,,0.18,VWS V14.01,2013-05-04 18:43:00,
2013-05-04 13:48:00,41.5,37.6,29.91,NNW,335,3.0,11.0,86,0.00,,,0.18,VWS V14.01,2013-05-04 18:48:00,
2013-05-04 13:53:00,41.9,38.0,29.91,NE,55,10.5,11.0,86,0.00,,,0.18,VWS V14.01,2013-05-04 18:53:00,
2013-05-04 13:58:00,41.6,37.7,29.91,WNW,287,3.0,11.0,86,0.00,,,0.18,VWS V14.01,2013-05-04 18:58:00,
2013-05-04 14:00:00,41.5,37.3,29.91,WNW,297,0.0,11.0,85,0.00,,,0.18,VWS V14.01,2013-05-04 19:00:00,
2013-05-04 14:03:00,41.7,38.1,29.92,NW,319,0.0,1.0,87,0.00,,,0.18,VWS V14.01,2013-05-04 19:03:00,
2013-05-04 14:08:00,42.0,37.8,29.92,North,11,6.0,6.0,85,0.00,,,0.18,VWS V14.01,2013-05-04 19:08:00,
2013-05-04 14:13:00,41.9,38.0,29.92,NNE,32,1.5,6.0,86,0.00,,,0.18,VWS V14.01,2013-05-04 19:13:00,
2013-05-04 14:18:00,41.7,37.8,29.92,NW,311,1.5,6.0,86,0.00,,,0.18,VWS V14.01,2013-05-04 19:18:00,
2013-05-04 14:23:00,41.7,37.8,29.92,WNW,290,4.5,8.0,86,0.00,,,0.18,VWS V14.01,2013-05-04 19:23:00,
2013-05-04 14:28:00,41.4,37.8,29.92,NNW,332,4.5,8.0,87,0.00,,,0.18,VWS V14.01,2013-05-04 19:28:00,
2013-05-04 14:33:00,41.7,38.1,29.92,NW,308,4.5,8.0,87,0.00,,,0.18,VWS V14.01,2013-05-04 19:33:00,
2013-05-04 14:38:00,42.2,37.4,29.92,WNW,285,4.5,8.0,83,0.00,,,0.18,VWS V14.01,2013-05-04 19:38:00,
2013-05-04 14:43:00,42.2,37.7,29.92,NNW,347,1.5,9.0,84,0.00,,,0.18,VWS V14.01,2013-05-04 19:43:00,
2013-05-04 14:48:00,43.3,38.2,29.92,North,356,10.5,10.5,82,0.00,,,0.18,VWS V14.01,2013-05-04 19:48:00,
2013-05-04 14:53:00,43.0,37.6,29.92,North,5,6.0,9.0,81,0.00,,,0.18,VWS V14.01,2013-05-04 19:53:00,
2013-05-04 14:58:00,42.7,37.0,29.92,WNW,295,10.5,10.5,80,0.00,,,0.18,VWS V14.01,2013-05-04 19:58:00,
2013-05-04 15:00:00,41.5,37.3,29.91,WNW,297,0.0,11.0,85,0.00,,,0.18,VWS V15.00,2013-05-04 20:00:00,
2013-05-04 15:03:00,42.7,37.6,29.92,NW,315,13.5,13.5,82,0.00,,,0.18,VWS V14.01,2013-05-04 20:03:00,
2013-05-04 15:08:00,42.8,38.0,29.92,WNW,295,4.5,9.0,83,0.00,,,0.18,VWS V14.01,2013-05-04 20:08:00,
2013-05-04 15:13:00,42.6,38.1,29.92,NNW,330,3.0,9.0,84,0.00,,,0.18,VWS V14.01,2013-05-04 20:13:00,
2013-05-04 15:18:00,42.5,37.4,29.92,NNE,25,4.5,9.0,82,0.00,,,0.18,VWS V14.01,2013-05-04 20:18:00,
2013-05-04 15:23:00,42.6,37.8,29.93,WNW,302,4.5,9.0,83,0.00,,,0.18,VWS V14.01,2013-05-04 20:23:00,
2013-05-04 15:28:00,42.4,38.2,29.93,NW,321,6.0,9.0,85,0.00,,,0.18,VWS V14.01,2013-05-04 20:28:00,
2013-05-04 15:33:00,42.4,37.9,29.93,NNE,32,9.0,9.0,84,0.00,,,0.18,VWS V14.01,2013-05-04 20:33:00,
2013-05-04 15:38:00,42.5,37.4,29.92,NW,305,1.5,9.0,82,0.00,,,0.18,VWS V14.01,2013-05-04 20:38:00,
2013-05-04 15:43:00,42.7,37.6,29.93,North,352,6.0,9.0,82,0.00,,,0.18,VWS V14.01,2013-05-04 20:43:00,
2013-05-04 15:48:00,42.5,37.1,29.93,North,4,9.0,9.0,81,0.00,,,0.18,VWS V14.01,2013-05-04 20:48:00,
2013-05-04 15:53:00,42.7,38.2,29.93,NW,308,1.5,9.0,84,0.00,,,0.18,VWS V14.01,2013-05-04 20:53:00,
2013-05-04 15:58:00,42.6,37.5,29.93,NNE,27,16.5,16.5,82,0.00,,,0.18,VWS V14.01,2013-05-04 20:58:00,
2013-05-04 16:00:00,42.4,37.6,29.93,North,5,4.5,11.0,83,0.00,,,0.18,VWS V14.01,2013-05-04 21:00:00,
2013-05-04 16:03:00,42.2,37.4,29.93,NE,38,9.0,10.0,83,0.00,,,0.18,VWS V14.01,2013-05-04 21:03:00,
2013-05-04 16:08:00,42.5,37.7,29.93,NNE,14,4.5,10.0,83,0.00,,,0.18,VWS V14.01,2013-05-04 21:08:00,
2013-05-04 16:13:00,42.7,37.6,29.93,NNE,23,6.0,10.0,82,0.00,,,0.18,VWS V14.01,2013-05-04 21:13:00,
2013-05-04 16:18:00,43.3,37.2,29.93,NE,40,7.5,10.0,79,0.00,,,0.18,VWS V14.01,2013-05-04 21:18:00,
2013-05-04 16:23:00,43.6,37.5,29.93,North,352,3.0,10.0,79,0.00,,,0.18,VWS V14.01,2013-05-04 21:23:00,
2013-05-04 16:28:00,44.0,38.2,29.93,WNW,295,6.0,10.0,80,0.00,,,0.18,VWS V14.01,2013-05-04 21:28:00,
2013-05-04 16:33:00,43.9,37.8,29.93,NW,319,1.5,10.0,79,0.00,,,0.18,VWS V14.01,2013-05-04 21:33:00,
2013-05-04 16:38:00,44.1,38.0,29.93,WNW,298,1.5,10.0,79,0.00,,,0.18,VWS V14.01,2013-05-04 21:38:00,
2013-05-04 16:43:00,44.0,38.5,29.93,NNE,26,3.0,10.0,81,0.00,,,0.18,VWS V14.01,2013-05-04 21:43:00,
2013-05-04 16:48:00,43.7,37.3,29.93,NNE,28,3.0,10.0,78,0.00,,,0.18,VWS V14.01,2013-05-04 21:48:00,
2013-05-04 16:53:00,43.7,37.3,29.93,NNE,27,6.0,10.0,78,0.00,,,0.18,VWS V14.01,2013-05-04 21:53:00,
2013-05-04 16:58:00,43.7,37.3,29.93,NNE,18,4.5,10.0,78,0.00,,,0.18,VWS V14.01,2013-05-04 21:58:00,
2013-05-04 17:00:00,42.4,37.6,29.93,North,5,4.5,11.0,83,0.00,,,0.18,VWS V15.00,2013-05-04 22:00:00,
2013-05-04 17:03:00,43.8,38.0,29.93,North,11,10.5,10.5,80,0.00,,,0.18,VWS V14.01,2013-05-04 22:03:00,
2013-05-04 17:08:00,43.5,38.1,29.94,NW,326,6.0,10.0,81,0.00,,,0.18,VWS V14.01,2013-05-04 22:08:00,
2013-05-04 17:13:00,43.3,38.2,29.94,NNE,27,1.5,10.0,82,0.00,,,0.18,VWS V14.01,2013-05-04 22:13:00,
2013-05-04 17:18:00,43.4,37.7,29.94,North,359,3.0,10.0,80,0.00,,,0.18,VWS V14.01,2013-05-04 22:18:00,
2013-05-04 17:23:00,43.5,38.1,29.94,NNE,18,6.0,10.0,81,0.00,,,0.18,VWS V14.01,2013-05-04 22:23:00,
2013-05-04 17:28:00,43.5,38.1,29.95,NNE,12,6.0,10.0,81,0.00,,,0.18,VWS V14.01,2013-05-04 22:28:00,
2013-05-04 17:33:00,43.5,38.4,29.95,North,350,1.5,10.0,82,0.00,,,0.18,VWS V14.01,2013-05-04 22:33:00,
2013-05-04 17:38:00,43.4,37.7,29.95,North,352,3.0,10.0,80,0.00,,,0.18,VWS V14.01,2013-05-04 22:38:00,
2013-05-04 17:43:00,43.5,37.8,29.95,NNW,330,1.5,10.0,80,0.00,,,0.18,VWS V14.01,2013-05-04 22:43:00,
2013-05-04 17:48:00,43.8,38.0,29.95,North,351,0.0,10.0,80,0.00,,,0.18,VWS V14.01,2013-05-04 22:48:00,
2013-05-04 17:53:00,44.2,37.8,29.95,NE,37,3.0,10.0,78,0.00,,,0.18,VWS V14.01,2013-05-04 22:53:00,
2013-05-04 17:58:00,44.2,38.1,29.95,NNW,333,6.0,10.0,79,0.00,,,0.18,VWS V14.01,2013-05-04 22:58:00,
2013-05-04 18:00:00,44.2,38.1,29.95,WNW,287,7.5,10.0,79,0.00,,,0.18,VWS V14.01,2013-05-04 23:00:00,
2013-05-04 18:03:00,44.1,38.0,29.95,West,278,7.5,9.0,79,0.00,,,0.18,VWS V14.01,2013-05-04 23:03:00,
2013-05-04 18:08:00,43.9,37.8,29.95,North,10,4.5,9.0,79,0.00,,,0.18,VWS V14.01,2013-05-04 23:08:00,
2013-05-04 18:12:00,43.8,37.7,29.95,NNE,13,6.0,9.0,79,0.00,,,0.18,VWS V14.01,2013-05-04 23:12:00,
2013-05-04 18:17:00,43.8,38.0,29.95,WNW,302,3.0,9.0,80,0.00,,,0.18,VWS V14.01,2013-05-04 23:17:00,
2013-05-04 18:22:00,44.0,37.9,29.95,NNE,23,9.0,9.0,79,0.00,,,0.18,VWS V14.01,2013-05-04 23:22:00,
2013-05-04 18:27:00,44.0,37.3,29.95,NNW,335,1.5,9.0,77,0.00,,,0.18,VWS V14.01,2013-05-04 23:27:00,
2013-05-04 18:32:00,44.0,37.6,29.95,NNW,331,3.0,9.0,78,0.00,,,0.18,VWS V14.01,2013-05-04 23:32:00,
2013-05-04 18:37:00,43.9,37.5,29.96,NNW,339,3.0,9.0,78,0.00,,,0.18,VWS V14.01,2013-05-04 23:37:00,
2013-05-04 18:42:00,43.9,37.8,29.96,NNE,25,4.5,9.0,79,0.00,,,0.18,VWS V14.01,2013-05-04 23:42:00,
2013-05-04 18:47:00,43.7,38.0,29.96,North,9,0.0,9.0,80,0.00,,,0.18,VWS V14.01,2013-05-04 23:47:00,
2013-05-04 18:52:00,43.6,37.8,29.96,North,354,6.0,9.0,80,0.00,,,0.18,VWS V14.01,2013-05-04 23:52:00,
2013-05-04 18:57:00,43.5,38.1,29.96,NNE,32,3.0,9.0,81,0.00,,,0.18,VWS V14.01,2013-05-04 23:57:00,
2013-05-04 19:00:00,44.2,38.1,29.95,WNW,287,7.5,10.0,79,0.00,,,0.18,VWS V15.00,2013-05-05 00:00:00,
2013-05-04 19:02:00,43.4,37.7,29.96,North,5,1.5,9.0,80,0.00,,,0.18,VWS V14.01,2013-05-05 00:02:00,
2013-05-04 19:07:00,43.3,37.6,29.96,NE,43,3.0,9.0,80,0.00,,,0.18,VWS V14.01,2013-05-05 00:07:00,
2013-05-04 19:12:00,43.2,37.5,29.96,NE,56,7.5,11.0,80,0.00,,,0.18,VWS V14.01,2013-05-05 00:12:00,
2013-05-04 19:17:00,43.2,37.5,29.96,NNE,28,1.5,11.0,80,0.00,,,0.18,VWS V14.01,2013-05-05 00:17:00,
2013-05-04 19:22:00,43.2,37.8,29.96,North,352,0.0,11.0,81,0.00,,,0.18,VWS V14.01,2013-05-05 00:22:00,
2013-05-04 19:27:00,43.2,37.5,29.96,WNW,288,3.0,11.0,80,0.00,,,0.18,VWS V14.01,2013-05-05 00:27:00,
2013-05-04 19:32:00,43.0,36.9,29.96,NE,41,6.0,11.0,79,0.00,,,0.18,VWS V14.01,2013-05-05 00:32:00,
2013-05-04 19:37:00,43.0,37.3,29.97,NE,50,4.5,11.0,80,0.00,,,0.18,VWS V14.01,2013-05-05 00:37:00,
2013-05-04 19:42:00,42.9,37.2,29.97,NW,313,4.5,11.0,80,0.00,,,0.18,VWS V14.01,2013-05-05 00:42:00,
2013-05-04 19:47:00,42.7,37.0,29.97,North,9,3.0,11.0,80,0.00,,,0.18,VWS V14.01,2013-05-05 00:47:00,
2013-05-04 19:52:00,42.7,37.0,29.97,NE,47,1.5,11.0,80,0.00,,,0.18,VWS V14.01,2013-05-05 00:52:00,
2013-05-04 19:57:00,42.6,37.2,29.97,NNW,348,1.5,11.0,81,0.00,,,0.18,VWS V14.01,2013-05-05 00:57:00,
2013-05-04 20:02:00,42.5,37.1,29.97,NNW,333,1.5,11.0,81,0.00,,,0.18,VWS V14.01,2013-05-05 01:02:00,
2013-05-04 20:07:00,42.4,37.0,29.97,NE,40,4.5,11.0,81,0.00,,,0.18,VWS V14.01,2013-05-05 01:07:00,
2013-05-04 20:12:00,42.2,36.8,29.98,NNE,23,4.5,11.0,81,0.00,,,0.18,VWS V14.01,2013-05-05 01:12:00,
2013-05-04 20:17:00,42.0,36.9,29.98,WNW,283,0.0,11.0,82,0.00,,,0.18,VWS V14.01,2013-05-05 01:17:00,
2013-05-04 20:22:00,41.8,36.7,29.98,NW,319,0.0,11.0,82,0.00,,,0.18,VWS V14.01,2013-05-05 01:22:00,
2013-05-04 20:27:00,41.6,36.8,29.98,NNW,336,3.0,11.0,83,0.00,,,0.18,VWS V14.01,2013-05-05 01:27:00,
2013-05-04 20:32:00,41.5,37.0,29.98,NE,44,1.5,11.0,84,0.00,,,0.18,VWS V14.01,2013-05-05 01:32:00,
2013-05-04 20:37:00,41.3,36.8,29.98,North,352,0.0,11.0,84,0.00,,,0.18,VWS V14.01,2013-05-05 01:37:00,
2013-05-04 20:42:00,41.4,37.2,29.98,NNE,33,1.5,11.0,85,0.00,,,0.18,VWS V14.01,2013-05-05 01:42:00,
2013-05-04 20:47:00,41.5,37.3,29.98,NNW,338,0.0,11.0,85,0.00,,,0.18,VWS V14.01,2013-05-05 01:47:00,
2013-05-04 20:52:00,41.4,37.2,29.99,NNW,340,0.0,11.0,85,0.00,,,0.18,VWS V14.01,2013-05-05 01:52:00,
2013-05-04 20:57:00,41.5,37.6,29.99,North,352,0.0,11.0,86,0.00,,,0.18,VWS V14.01,2013-05-05 01:57:00,
2013-05-04 21:02:00,41.6,37.7,29.99,NW,305,1.5,11.0,86,0.00,,,0.18,VWS V14.01,2013-05-05 02:02:00,
2013-05-04 21:07:00,41.7,37.8,29.99,WNW,291,0.0,11.0,86,0.00,,,0.18,VWS V14.01,2013-05-05 02:07:00,
2013-05-04 21:12:00,41.6,37.7,29.99,WNW,303,0.0,11.0,86,0.00,,,0.18,VWS V14.01,2013-05-05 02:12:00,
2013-05-04 21:17:00,41.5,37.6,29.99,NNW,332,0.0,11.0,86,0.00,,,0.18,VWS V14.01,2013-05-05 02:17:00,
2013-05-04 21:22:00,41.3,37.4,30.00,NNW,335,0.0,11.0,86,0.00,,,0.18,VWS V14.01,2013-05-05 02:22:00,
2013-05-04 21:27:00,41.2,37.3,30.00,NNW,344,0.0,11.0,86,0.00,,,0.18,VWS V14.01,2013-05-05 02:27:00,
2013-05-04 21:32:00,41.2,37.6,30.00,NNW,343,0.0,11.0,87,0.00,,,0.18,VWS V14.01,2013-05-05 02:32:00,
2013-05-04 21:37:00,41.0,37.4,30.00,NNW,344,0.0,11.0,87,0.00,,,0.18,VWS V14.01,2013-05-05 02:37:00,
2013-05-04 21:42:00,41.0,37.4,30.00,NNW,344,0.0,11.0,87,0.00,,,0.18,VWS V14.01,2013-05-05 02:42:00,
2013-05-04 21:47:00,40.9,37.6,30.00,NNW,345,1.5,11.0,88,0.00,,,0.18,VWS V14.01,2013-05-05 02:47:00,
2013-05-04 21:52:00,40.9,37.6,30.00,NNW,344,0.0,11.0,88,0.00,,,0.18,VWS V14.01,2013-05-05 02:52:00,
2013-05-04 21:57:00,40.8,37.2,30.00,NNW,330,0.0,11.0,87,0.00,,,0.18,VWS V14.01,2013-05-05 02:57:00,
2013-05-04 22:00:00,40.9,37.6,30.00,WNW,297,0.0,11.0,88,0.00,,,0.18,VWS V14.01,2013-05-05 03:00:00,
2013-05-04 22:02:00,40.9,37.3,30.00,NNE,26,0.0,3.0,87,0.00,,,0.18,VWS V14.01,2013-05-05 03:02:00,
2013-05-04 22:07:00,41.0,37.7,30.00,NNW,348,0.0,3.0,88,0.00,,,0.18,VWS V14.01,2013-05-05 03:07:00,
2013-05-04 22:12:00,41.1,37.5,30.01,NNE,18,3.0,3.0,87,0.00,,,0.18,VWS V14.01,2013-05-05 03:12:00,
2013-05-04 22:17:00,41.2,37.6,30.01,North,9,0.0,3.0,87,0.00,,,0.18,VWS V14.01,2013-05-05 03:17:00,
2013-05-04 22:22:00,41.3,37.7,30.01,NW,317,1.5,3.0,87,0.00,,,0.18,VWS V14.01,2013-05-05 03:22:00,
2013-05-04 22:27:00,41.4,37.8,30.01,NNW,330,0.0,3.0,87,0.00,,,0.18,VWS V14.01,2013-05-05 03:27:00,
2013-05-04 22:32:00,41.5,37.6,30.01,NE,34,1.5,3.0,86,0.00,,,0.18,VWS V14.01,2013-05-05 03:32:00,
2013-05-04 22:37:00,41.5,37.9,30.01,North,9,4.5,4.5,87,0.00,,,0.18,VWS V14.01,2013-05-05 03:37:00,
2013-05-04 22:42:00,41.6,37.7,30.01,NNW,347,1.5,4.0,86,0.00,,,0.18,VWS V14.01,2013-05-05 03:42:00,
2013-05-04 22:47:00,41.7,37.8,30.02,NNE,30,4.5,5.0,86,0.00,,,0.18,VWS V14.01,2013-05-05 03:47:00,
2013-05-04 22:52:00,41.7,37.8,30.02,NW,326,4.5,5.0,86,0.00,,,0.18,VWS V14.01,2013-05-05 03:52:00,
2013-05-04 22:57:00,41.7,37.8,30.02,NW,325,1.5,6.0,86,0.00,,,0.18,VWS V14.01,2013-05-05 03:57:00,
2013-05-04 23:01:00,41.8,37.9,30.02,NNE,15,6.0,6.0,86,0.00,,,0.18,VWS V14.01,2013-05-05 04:01:00,
2013-05-04 23:06:00,41.8,38.2,30.02,NNE,29,1.5,6.0,87,0.00,,,0.18,VWS V14.01,2013-05-05 04:06:00,
2013-05-04 23:11:00,41.7,37.8,30.02,NNW,333,4.5,6.0,86,0.00,,,0.18,VWS V14.01,2013-05-05 04:11:00,
2013-05-04 23:16:00,41.4,37.8,30.01,NNE,18,3.0,6.0,87,0.00,,,0.18,VWS V14.01,2013-05-05 04:16:00,
2013-05-04 23:21:00,41.2,37.6,30.02,NE,44,6.0,6.0,87,0.00,,,0.18,VWS V14.01,2013-05-05 04:21:00,
2013-05-04 23:26:00,41.0,37.7,30.01,NNE,25,4.5,6.0,88,0.00,,,0.18,VWS V14.01,2013-05-05 04:26:00,
2013-05-04 23:31:00,40.7,37.4,30.02,North,358,3.0,6.0,88,0.00,,,0.18,VWS V14.01,2013-05-05 04:31:00,
2013-05-04 23:36:00,40.5,37.5,30.02,East,84,0.0,6.0,89,0.00,,,0.18,VWS V14.01,2013-05-05 04:36:00,
2013-05-04 23:41:00,40.2,37.2,30.02,NE,53,3.0,6.0,89,0.00,,,0.18,VWS V14.01,2013-05-05 04:41:00,
2013-05-04 23:46:00,40.0,37.3,30.02,NE,38,1.5,6.0,90,0.00,,,0.18,VWS V14.01,2013-05-05 04:46:00,
2013-05-04 23:51:00,39.8,37.1,30.02,NE,44,3.0,6.0,90,0.00,,,0.18,VWS V14.01,2013-05-05 04:51:00,
2013-05-04 23:56:00,39.6,37.2,30.02,North,355,0.0,6.0,91,0.00,,,0.18,VWS V14.01,2013-05-05 04:56:00,